Time;durP1;ratioP1;P1;durP2;ratioP2;P2;SDS_P1;SDS_P2;PMS_P1;PMS_P2;Temp;Humidity;BMP_temperature;BMP_pressure;BME280_temperature;BME280_humidity;BME280_pressure;Samples;Min_cycle;Max_cycle;Signal;HPM_P1;HPM_P2
2024/04/16 00:01:55;;;;;;;1999.90;999.90;;;10.40;99.90;;;;;;5526645;26;20004;-70
2024/04/16 00:04:21;;;;;;;1999.90;999.90;;;10.50;99.90;;;;;;5526692;26;19997;-70
2024/04/16 00:06:49;;;;;;;1999.90;999.90;;;10.50;99.90;;;;;;5526461;26;20001;-70
2024/04/16 00:09:14;;;;;;;1999.90;999.90;;;10.50;99.90;;;;;;5526855;26;20001;-70
2024/04/16 00:11:40;;;;;;;1999.90;999.90;;;10.60;99.90;;;;;;5526695;26;20449;-70
2024/04/16 00:14:06;;;;;;;1999.90;999.90;;;10.50;99.90;;;;;;5526642;26;19997;-70
2024/04/16 00:16:31;;;;;;;1999.90;999.90;;;10.60;99.90;;;;;;5494279;26;19994;-70
2024/04/16 00:18:57;;;;;;;1999.90;999.90;;;10.60;99.90;;;;;;5526481;26;20070;-73
2024/04/16 00:21:23;;;;;;;1999.90;999.90;;;10.70;99.90;;;;;;5526193;26;20038;-70
2024/04/16 00:23:48;;;;;;;1999.90;999.90;;;10.80;99.90;;;;;;5526600;26;20459;-73
2024/04/16 00:26:14;;;;;;;1999.90;999.90;;;10.80;99.90;;;;;;5526910;26;19997;-70
2024/04/16 00:28:39;;;;;;;1999.90;999.90;;;10.90;99.90;;;;;;5526643;26;19997;-73
2024/04/16 00:31:05;;;;;;;1999.90;999.90;;;10.90;99.90;;;;;;5526344;25;19997;-70
2024/04/16 00:33:31;;;;;;;1999.90;999.90;;;10.90;99.90;;;;;;5526604;26;20437;-70
2024/04/16 00:35:56;;;;;;;1999.90;999.90;;;10.80;99.90;;;;;;5526357;26;20441;-73
2024/04/16 00:38:22;;;;;;;1999.90;999.90;;;10.80;99.90;;;;;;5526104;26;19997;-70
2024/04/16 00:40:48;;;;;;;1999.90;999.90;;;10.70;99.90;;;;;;5526798;26;19993;-69
2024/04/16 00:43:21;;;;;;;1999.90;999.90;;;10.60;99.90;;;;;;5526205;26;20004;-73
2024/04/16 00:45:51;;;;;;;;;;;10.50;99.90;;;;;;5527037;26;20004;-70
2024/04/16 00:48:18;;;;;;;1999.90;999.90;;;10.50;99.90;;;;;;5526225;26;19927;-70
2024/04/16 00:50:45;;;;;;;1999.90;999.90;;;10.50;99.90;;;;;;5525940;26;20012;-73
2024/04/16 00:53:12;;;;;;;1999.90;999.90;;;10.50;99.90;;;;;;5526444;26;20005;-73
2024/04/16 00:55:38;;;;;;;1999.90;999.90;;;10.50;99.90;;;;;;5525404;26;19997;-69
2024/04/16 00:58:05;;;;;;;1999.90;999.90;;;10.60;99.90;;;;;;5525620;26;20000;-70
2024/04/16 01:00:31;;;;;;;1999.90;999.90;;;10.60;99.90;;;;;;5526070;26;20432;-69
2024/04/16 01:02:56;;;;;;;1999.90;999.90;;;10.60;99.90;;;;;;5526027;26;20061;-73
2024/04/16 01:05:22;;;;;;;1999.90;999.90;;;10.60;99.90;;;;;;5526145;26;20053;-74
2024/04/16 01:07:48;;;;;;;1999.90;999.90;;;10.60;99.90;;;;;;5525368;26;20008;-70
2024/04/16 01:10:13;;;;;;;1999.90;999.90;;;10.60;99.90;;;;;;5526596;26;20065;-74
2024/04/16 01:12:42;;;;;;;1999.90;999.90;;;10.70;99.90;;;;;;5493024;26;19993;-70
2024/04/16 01:15:09;;;;;;;1999.90;999.90;;;10.70;99.90;;;;;;5525871;26;19993;-70
2024/04/16 01:17:34;;;;;;;1999.90;999.90;;;10.70;99.90;;;;;;5525975;26;20008;-69
2024/04/16 01:20:00;;;;;;;1999.90;999.90;;;10.70;99.90;;;;;;5525585;26;19993;-70
2024/04/16 01:22:25;;;;;;;1999.90;999.90;;;10.70;99.90;;;;;;5525822;26;19993;-74
2024/04/16 01:24:51;;;;;;;1999.90;999.90;;;10.70;99.90;;;;;;5525773;26;20433;-70
2024/04/16 01:27:17;;;;;;;1999.90;999.90;;;10.60;99.90;;;;;;5525894;26;20318;-73
2024/04/16 01:29:43;;;;;;;1999.90;999.90;;;10.50;99.90;;;;;;5525880;26;19997;-73
2024/04/16 01:32:08;;;;;;;1999.90;999.90;;;10.40;99.90;;;;;;5525871;25;20342;-70
2024/04/16 01:34:34;;;;;;;1999.90;999.90;;;10.30;99.90;;;;;;5525743;26;19989;-70
2024/04/16 01:37:00;;;;;;;1999.90;999.90;;;10.20;99.90;;;;;;5525386;26;20001;-70
2024/04/16 01:39:25;;;;;;;1999.90;999.90;;;10.20;99.90;;;;;;5525355;26;19989;-70
2024/04/16 01:41:51;;;;;;;1999.90;999.90;;;10.20;99.90;;;;;;5526038;26;20001;-70
2024/04/16 01:44:16;;;;;;;1999.90;999.90;;;10.20;99.90;;;;;;5525446;26;20440;-70
2024/04/16 01:46:42;;;;;;;1999.90;999.90;;;10.30;99.90;;;;;;5525665;26;19994;-70
2024/04/16 01:49:08;;;;;;;1999.90;999.90;;;10.30;99.90;;;;;;5525745;26;20024;-73
2024/04/16 01:51:33;;;;;;;1999.90;999.90;;;10.40;99.90;;;;;;5525254;25;20370;-73
2024/04/16 01:53:59;;;;;;;1999.90;999.90;;;10.50;99.90;;;;;;5492289;26;20004;-70
2024/04/16 01:56:24;;;;;;;1999.90;999.90;;;10.50;99.90;;;;;;5525057;26;20357;-73
2024/04/16 01:58:50;;;;;;;1999.90;999.90;;;10.50;99.90;;;;;;5524020;26;19993;-74
2024/04/16 02:01:16;;;;;;;1999.90;999.90;;;10.50;99.90;;;;;;5492960;26;20020;-70
2024/04/16 02:03:41;;;;;;;1999.90;999.90;;;10.50;99.90;;;;;;5524845;26;20056;-70
2024/04/16 02:06:07;;;;;;;1999.90;999.90;;;10.50;99.90;;;;;;5524489;26;20004;-69
2024/04/16 02:08:33;;;;;;;1999.90;999.90;;;10.50;99.90;;;;;;5524959;26;19993;-74
2024/04/16 02:10:59;;;;;;;1999.90;999.90;;;10.50;99.90;;;;;;5492748;26;20338;-73
2024/04/16 02:13:25;;;;;;;1999.90;999.90;;;10.50;99.90;;;;;;5524447;26;20001;-70
2024/04/16 02:15:52;;;;;;;1999.90;999.90;;;10.50;99.90;;;;;;5525106;26;19997;-69
2024/04/16 02:18:18;;;;;;;1999.90;999.90;;;10.40;99.90;;;;;;5523680;26;20004;-70
2024/04/16 02:20:44;;;;;;;1999.90;999.90;;;10.40;99.90;;;;;;5492241;26;19993;-73
2024/04/16 02:23:10;;;;;;;1999.90;999.90;;;10.30;99.90;;;;;;5492064;26;20008;-74
2024/04/16 02:25:36;;;;;;;1999.90;999.90;;;10.30;99.90;;;;;;5525040;26;20009;-73
2024/04/16 02:28:01;;;;;;;1999.90;999.90;;;10.30;99.90;;;;;;5525278;26;19989;-70
2024/04/16 02:30:27;;;;;;;1999.90;999.90;;;10.20;99.90;;;;;;5524738;26;20447;-69
2024/04/16 02:32:54;;;;;;;1999.90;999.90;;;10.20;99.90;;;;;;5524616;25;19997;-69
2024/04/16 02:35:20;;;;;;;1999.90;999.90;;;10.10;99.90;;;;;;5524842;26;20012;-69
2024/04/16 02:37:48;;;;;;;1999.90;999.90;;;10.00;99.90;;;;;;5524636;26;19989;-73
2024/04/16 02:40:14;;;;;;;1999.90;999.90;;;10.00;99.90;;;;;;5524981;26;19993;-69
2024/04/16 02:42:40;;;;;;;1999.90;999.90;;;9.90;99.90;;;;;;5524168;26;19997;-70
2024/04/16 02:45:06;;;;;;;1999.90;999.90;;;9.80;99.90;;;;;;5524604;26;19989;-69
2024/04/16 02:47:32;;;;;;;1999.90;999.90;;;9.80;99.90;;;;;;5492053;26;20436;-73
2024/04/16 02:49:57;;;;;;;1999.90;999.90;;;9.70;99.90;;;;;;5524228;26;20016;-70
2024/04/16 02:52:23;;;;;;;1999.90;999.90;;;9.70;99.90;;;;;;5525059;26;19993;-70
2024/04/16 02:54:49;;;;;;;1999.90;999.90;;;9.60;99.90;;;;;;5524370;26;20086;-73
2024/04/16 02:57:15;;;;;;;1999.90;999.90;;;9.60;99.90;;;;;;5524403;26;20005;-69
2024/04/16 02:59:40;;;;;;;1999.90;999.90;;;9.50;99.90;;;;;;5524885;26;20112;-71
2024/04/16 03:02:06;;;;;;;1999.90;999.90;;;9.40;99.90;;;;;;5523975;26;20539;-69
2024/04/16 03:04:32;;;;;;;1999.90;999.90;;;9.40;99.90;;;;;;5524254;26;20404;-72
2024/04/16 03:06:58;;;;;;;1999.90;999.90;;;9.30;99.90;;;;;;5524623;26;20460;-69
2024/04/16 03:09:23;;;;;;;1999.90;999.90;;;9.30;99.90;;;;;;5524087;26;20385;-69
2024/04/16 03:11:49;;;;;;;1999.90;999.90;;;9.30;99.90;;;;;;5524175;26;20005;-70
2024/04/16 03:14:15;;;;;;;1999.90;999.90;;;9.30;99.90;;;;;;5524165;26;20038;-69
2024/04/16 03:16:41;;;;;;;1999.90;999.90;;;9.20;99.90;;;;;;5524187;26;20064;-69
2024/04/16 03:19:06;;;;;;;1999.90;999.90;;;9.30;99.90;;;;;;5461144;26;20002;-70
2024/04/16 03:21:32;;;;;;;1999.90;999.90;;;9.20;99.90;;;;;;5524180;26;19997;-69
2024/04/16 03:23:58;;;;;;;1999.90;999.90;;;9.20;99.90;;;;;;5523809;26;19998;-70
2024/04/16 03:26:24;;;;;;;1999.90;999.90;;;9.20;99.90;;;;;;5524718;26;20434;-73
2024/04/16 03:28:49;;;;;;;1999.90;999.90;;;9.20;99.90;;;;;;5523224;26;20004;-69
2024/04/16 03:31:15;;;;;;;1999.90;999.90;;;9.10;99.90;;;;;;5523814;25;20001;-70
2024/04/16 03:33:41;;;;;;;1999.90;999.90;;;9.10;99.90;;;;;;5523906;26;20004;-73
2024/04/16 03:36:06;;;;;;;1999.90;999.90;;;9.20;99.90;;;;;;5523663;26;20033;-69
2024/04/16 03:38:32;;;;;;;1999.90;999.90;;;9.30;99.90;;;;;;5523918;26;20004;-69
2024/04/16 03:41:00;;;;;;;1999.90;999.90;;;9.30;99.90;;;;;;5523097;26;20069;-73
2024/04/16 03:43:27;;;;;;;1999.90;999.90;;;9.40;99.90;;;;;;5491212;26;19993;-70
2024/04/16 03:45:57;;;;;;;1999.90;999.90;;;9.50;99.90;;;;;;5523718;26;20026;-69
2024/04/16 03:48:24;;;;;;;1999.90;999.90;;;9.50;99.90;;;;;;5524252;26;20001;-70
2024/04/16 03:50:50;;;;;;;1999.90;999.90;;;9.60;99.90;;;;;;5539104;25;20017;-70
2024/04/16 03:53:16;;;;;;;1999.90;999.90;;;9.70;99.90;;;;;;5527975;25;20063;-69
2024/04/16 03:55:43;;;;;;;1999.90;999.90;;;9.70;99.90;;;;;;5552522;25;20012;-69
2024/04/16 03:58:09;;;;;;;1999.90;999.90;;;9.70;99.90;;;;;;5490684;26;20065;-73
2024/04/16 04:03:19;;;;;;;1999.90;999.90;;;9.80;99.90;;;;;;5522861;26;20110;-70
2024/04/16 04:05:45;;;;;;;1999.90;999.90;;;9.80;99.90;;;;;;5523266;26;20382;-73
2024/04/16 04:08:11;;;;;;;1999.90;999.90;;;9.70;99.90;;;;;;5523553;26;20003;-73
2024/04/16 04:10:37;;;;;;;1999.90;999.90;;;9.70;99.90;;;;;;5523843;26;19994;-69
2024/04/16 04:13:03;;;;;;;1999.90;999.90;;;9.70;99.90;;;;;;5523393;26;20046;-70
2024/04/16 04:15:29;;;;;;;1999.90;999.90;;;9.70;99.90;;;;;;5523750;26;20401;-69
2024/04/16 04:17:55;;;;;;;1999.90;999.90;;;9.70;99.90;;;;;;5522816;26;20091;-70
2024/04/16 04:20:20;;;;;;;1999.90;999.90;;;9.60;99.90;;;;;;5522863;26;20028;-70
2024/04/16 04:22:46;;;;;;;1999.90;999.90;;;9.60;99.90;;;;;;5522514;26;20001;-73
2024/04/16 04:25:12;;;;;;;1999.90;999.90;;;9.60;99.90;;;;;;5522902;26;20001;-70
2024/04/16 04:27:43;;;;;;;1999.90;999.90;;;9.60;99.90;;;;;;5523158;26;20005;-73
2024/04/16 04:30:09;;;;;;;1999.90;999.90;;;9.60;99.90;;;;;;5546193;25;20020;-73
2024/04/16 04:32:35;;;;;;;1999.90;999.90;;;9.60;99.90;;;;;;5530368;25;20331;-73
2024/04/16 04:35:01;;;;;;;1999.90;999.90;;;9.50;99.90;;;;;;5522779;26;20065;-70
2024/04/16 04:37:27;;;;;;;1999.90;999.90;;;9.40;99.90;;;;;;5519763;26;19997;-69
2024/04/16 04:39:53;;;;;;;1999.90;999.90;;;9.40;99.90;;;;;;5490038;26;20003;-69
2024/04/16 04:42:19;;;;;;;1999.90;999.90;;;9.30;99.90;;;;;;5525205;26;20003;-69
2024/04/16 04:44:45;;;;;;;1999.90;999.90;;;9.20;99.90;;;;;;5525961;26;19989;-73
2024/04/16 04:47:12;;;;;;;1999.90;999.90;;;9.20;99.90;;;;;;5524092;26;20073;-70
2024/04/16 04:49:38;;;;;;;1999.90;999.90;;;9.20;99.90;;;;;;5526192;26;19997;-69
2024/04/16 04:52:04;;;;;;;1999.90;999.90;;;9.10;99.90;;;;;;5525354;25;19993;-70
2024/04/16 04:54:30;;;;;;;1999.90;999.90;;;9.10;99.90;;;;;;5525040;26;20012;-70
2024/04/16 04:56:56;;;;;;;1999.90;999.90;;;9.00;99.90;;;;;;5525778;26;20002;-69
2024/04/16 04:59:22;;;;;;;1999.90;999.90;;;9.00;99.90;;;;;;5525692;26;20009;-69
2024/04/16 05:01:47;;;;;;;1999.90;999.90;;;8.90;99.90;;;;;;5525992;26;20393;-69
2024/04/16 05:04:13;;;;;;;1999.90;999.90;;;8.90;99.90;;;;;;5525901;26;19998;-69
2024/04/16 05:06:39;;;;;;;1999.90;999.90;;;8.90;99.90;;;;;;5525533;26;20471;-73
2024/04/16 05:09:05;;;;;;;1999.90;999.90;;;8.90;99.90;;;;;;5525893;26;19997;-69
2024/04/16 05:11:32;;;;;;;1999.90;999.90;;;8.90;99.90;;;;;;5525657;26;19993;-73
2024/04/16 05:13:57;;;;;;;1999.90;999.90;;;8.80;99.90;;;;;;5525508;26;20319;-73
2024/04/16 05:16:24;;;;;;;1999.90;999.90;;;8.80;99.90;;;;;;5525711;26;20004;-69
2024/04/16 05:18:49;;;;;;;1999.90;999.90;;;8.80;99.90;;;;;;5525526;26;19993;-69
2024/04/16 05:21:15;;;;;;;1999.90;999.90;;;8.80;99.90;;;;;;5492823;26;20320;-69
2024/04/16 05:23:40;;;;;;;1999.90;999.90;;;8.70;99.90;;;;;;5526119;26;20005;-69
2024/04/16 05:26:07;;;;;;;1999.90;999.90;;;8.80;99.90;;;;;;5525224;26;19997;-72
2024/04/16 05:28:33;;;;;;;1999.90;999.90;;;8.80;99.90;;;;;;5487228;26;20308;-69
2024/04/16 05:30:59;;;;;;;1999.90;999.90;;;8.90;99.90;;;;;;5500318;26;20377;-69
2024/04/16 05:33:25;;;;;;;1999.90;999.90;;;9.00;99.90;;;;;;5522135;26;20072;-73
2024/04/16 05:35:51;;;;;;;1999.90;999.90;;;9.00;99.90;;;;;;5523539;26;20001;-69
2024/04/16 05:38:17;;;;;;;1999.90;999.90;;;9.00;99.90;;;;;;5523599;26;20012;-71
2024/04/16 05:40:43;;;;;;;1999.90;999.90;;;9.00;99.90;;;;;;5523823;26;20369;-72
2024/04/16 05:43:09;;;;;;;1999.90;999.90;;;9.10;99.90;;;;;;5523747;26;20038;-69
2024/04/16 05:45:35;;;;;;;1999.90;999.90;;;9.10;99.90;;;;;;5524763;26;19997;-69
2024/04/16 05:48:00;;;;;;;1999.90;999.90;;;9.20;99.90;;;;;;5523505;26;20079;-69
2024/04/16 05:50:26;;;;;;;1999.90;999.90;;;9.20;99.90;;;;;;5524052;26;20336;-68
2024/04/16 05:52:52;;;;;;;1999.90;999.90;;;9.20;99.90;;;;;;5524112;26;20446;-69
2024/04/16 05:55:18;;;;;;;1999.90;999.90;;;9.30;99.90;;;;;;5524611;26;20001;-69
2024/04/16 05:57:44;;;;;;;1999.90;999.90;;;9.30;99.90;;;;;;5524140;26;20021;-69
2024/04/16 06:00:10;;;;;;;1999.90;999.90;;;9.30;99.90;;;;;;5524459;26;19994;-69
2024/04/16 06:02:35;;;;;;;1999.90;999.90;;;9.40;99.90;;;;;;5523968;26;19998;-71
2024/04/16 06:05:01;;;;;;;1999.90;999.90;;;9.50;99.90;;;;;;5487953;26;20004;-71
2024/04/16 06:07:27;;;;;;;1999.90;999.90;;;9.50;99.90;;;;;;5519004;26;20340;-69
2024/04/16 06:09:53;;;;;;;1999.90;999.90;;;9.50;99.90;;;;;;5516588;25;20132;-69
2024/04/16 06:12:19;;;;;;;1999.90;999.90;;;9.60;99.90;;;;;;5522650;26;19997;-69
2024/04/16 06:14:44;;;;;;;1999.90;999.90;;;9.70;99.90;;;;;;5524351;26;20002;-69
2024/04/16 06:17:10;;;;;;;1999.90;999.90;;;9.70;99.90;;;;;;5524206;26;19994;-72
2024/04/16 06:19:36;;;;;;;1999.90;999.90;;;9.70;99.90;;;;;;5523959;26;20414;-71
2024/04/16 06:22:02;;;;;;;1999.90;999.90;;;9.80;99.90;;;;;;5523342;26;20005;-70
2024/04/16 06:24:28;;;;;;;1999.90;999.90;;;9.80;99.90;;;;;;5523655;26;20013;-70
2024/04/16 06:26:53;;;;;;;1999.90;999.90;;;9.90;99.90;;;;;;5490966;26;20297;-72
2024/04/16 06:29:20;;;;;;;1999.90;999.90;;;10.00;99.90;;;;;;5533530;25;20396;-72
2024/04/16 06:31:46;;;;;;;1999.90;999.90;;;10.20;99.90;;;;;;5544719;25;20024;-69
2024/04/16 06:34:11;;;;;;;1999.90;999.90;;;10.30;99.90;;;;;;5523011;25;20001;-69
2024/04/16 06:36:37;;;;;;;1999.90;999.90;;;10.40;99.90;;;;;;5491844;26;20446;-70
2024/04/16 06:39:03;;;;;;;1999.90;999.90;;;10.40;99.90;;;;;;5510503;26;19998;-69
2024/04/16 06:41:28;;;;;;;1999.90;999.90;;;10.40;99.90;;;;;;5507120;26;19994;-72
2024/04/16 06:43:54;;;;;;;1999.90;999.90;;;10.50;99.90;;;;;;5520374;26;20001;-72
2024/04/16 06:46:19;;;;;;;1999.90;999.90;;;10.50;99.90;;;;;;5509643;26;20507;-69
2024/04/16 06:48:45;;;;;;;1999.90;999.90;;;10.60;99.90;;;;;;5522294;25;20080;-70
2024/04/16 06:51:11;;;;;;;1999.90;999.90;;;10.70;99.90;;;;;;5496853;26;20002;-69
2024/04/16 06:53:36;;;;;;;1999.90;999.90;;;10.70;99.90;;;;;;5521861;26;19998;-69
2024/04/16 06:56:04;;;;;;;1999.90;999.90;;;10.80;99.90;;;;;;5520477;26;20227;-73
2024/04/16 06:58:30;;;;;;;1999.90;999.90;;;10.80;99.90;;;;;;5521794;26;20436;-70
2024/04/16 07:00:56;;;;;;;1999.90;999.90;;;10.90;99.90;;;;;;5521231;26;20007;-73
2024/04/16 07:03:23;;;;;;;1999.90;999.90;;;11.00;99.90;;;;;;5521633;26;20357;-69
2024/04/16 07:05:48;;;;;;;1999.90;999.90;;;11.20;99.90;;;;;;5522834;26;20033;-73
2024/04/16 07:08:14;;;;;;;1999.90;999.90;;;11.30;99.90;;;;;;5522455;26;20013;-73
2024/04/16 07:10:40;;;;;;;1999.90;999.90;;;11.50;99.90;;;;;;5522203;26;20069;-70
2024/04/16 07:13:06;;;;;;;1999.90;999.90;;;11.60;99.90;;;;;;5523301;26;20010;-69
2024/04/16 07:15:33;;;;;;;1999.90;999.90;;;11.80;99.90;;;;;;5522875;26;20052;-70
2024/04/16 07:17:59;;;;;;;1999.90;999.90;;;12.00;99.90;;;;;;5522939;26;20011;-73
2024/04/16 07:20:25;;;;;;;1999.90;999.90;;;12.30;99.90;;;;;;5523056;26;19997;-73
2024/04/16 07:22:51;;;;;;;1999.90;999.90;;;12.50;99.90;;;;;;5522351;26;19997;-70
2024/04/16 07:25:17;;;;;;;1999.90;999.90;;;12.70;99.90;;;;;;5522883;26;20032;-70
2024/04/16 07:27:44;;;;;;;1999.90;999.90;;;12.60;99.90;;;;;;5522103;26;20001;-70
2024/04/16 07:30:10;;;;;;;1999.90;999.90;;;12.40;99.90;;;;;;5533656;25;19993;-70
2024/04/16 07:32:36;;;;;;;1999.90;999.90;;;12.50;99.90;;;;;;5521112;25;20039;-70
2024/04/16 07:35:01;;;;;;;1999.90;999.90;;;12.60;99.90;;;;;;5521167;26;20001;-73
2024/04/16 07:37:27;;;;;;;1999.90;999.90;;;12.80;99.90;;;;;;5520495;26;20097;-70
2024/04/16 07:39:53;;;;;;;1999.90;999.90;;;13.00;99.90;;;;;;5527311;25;20002;-70
2024/04/16 07:42:18;;;;;;;1999.90;999.90;;;12.90;99.90;;;;;;5520581;26;20002;-70
2024/04/16 07:44:44;;;;;;;1999.90;999.90;;;12.80;99.90;;;;;;5519117;26;20002;-69
2024/04/16 07:47:10;;;;;;;1999.90;999.90;;;13.20;99.90;;;;;;5518809;26;20187;-70
2024/04/16 07:49:35;;;;;;;1999.90;999.90;;;13.30;99.90;;;;;;5521480;26;20028;-71
2024/04/16 07:52:01;;;;;;;1999.90;999.90;;;13.60;99.90;;;;;;5488638;26;19997;-69
2024/04/16 07:54:26;;;;;;;1999.90;999.90;;;13.80;99.90;;;;;;5521217;26;19993;-70
2024/04/16 07:56:53;;;;;;;1999.90;999.90;;;14.00;99.90;;;;;;5520852;26;20013;-69
2024/04/16 07:59:22;;;;;;;1999.90;999.90;;;14.10;99.90;;;;;;5497967;26;20018;-69
2024/04/16 08:01:47;;;;;;;1999.90;999.90;;;14.30;99.90;;;;;;5512479;26;20069;-74
2024/04/16 08:04:13;;;;;;;1999.90;999.90;;;13.90;99.90;;;;;;5516201;26;20023;-73
2024/04/16 08:06:39;;;;;;;1999.90;999.90;;;13.70;99.90;;;;;;5520233;26;19997;-69
2024/04/16 08:09:04;;;;;;;1999.90;999.90;;;13.50;99.90;;;;;;5521003;26;20008;-68
2024/04/16 08:11:30;;;;;;;1999.90;999.90;;;13.10;99.90;;;;;;5520736;26;20012;-68
2024/04/16 08:13:56;;;;;;;1999.90;999.90;;;13.10;99.90;;;;;;5518276;26;20107;-72
2024/04/16 08:16:21;;;;;;;1999.90;999.90;;;13.60;99.90;;;;;;5523730;26;20009;-68
2024/04/16 08:18:47;;;;;;;1999.90;999.90;;;13.90;99.90;;;;;;5492010;26;19994;-69
2024/04/16 08:21:13;;;;;;;1999.90;999.90;;;13.60;99.90;;;;;;5525394;26;20005;-68
2024/04/16 08:23:39;;;;;;;1999.90;999.90;;;14.10;99.90;;;;;;5524784;26;20005;-74
2024/04/16 08:26:07;;;;;;;1999.90;999.90;;;15.30;99.90;;;;;;5525280;26;20074;-73
2024/04/16 08:28:33;;;;;;;1999.90;999.90;;;19.20;99.90;;;;;;5525363;26;19993;-74
2024/04/16 08:31:01;;;;;;;1999.90;999.90;;;20.90;99.90;;;;;;5547014;25;20005;-70
2024/04/16 08:33:27;;;;;;;1999.90;999.90;;;20.30;99.90;;;;;;5524614;26;19997;-70
2024/04/16 08:35:53;;;;;;;1999.90;999.90;;;20.50;99.90;;;;;;5524831;26;20002;-69
2024/04/16 08:38:20;;;;;;;1999.90;999.90;;;20.40;99.90;;;;;;5525057;26;20428;-74
2024/04/16 08:40:46;;;;;;;1999.90;999.90;;;22.00;99.90;;;;;;5524243;26;20012;-73
2024/04/16 08:43:12;;;;;;;1999.90;999.90;;;22.70;99.90;;;;;;5524560;26;20566;-69
2024/04/16 08:45:38;;;;;;;1999.90;999.90;;;23.10;99.90;;;;;;5524851;26;19997;-69
2024/04/16 08:48:05;;;;;;;1999.90;999.90;;;22.00;99.90;;;;;;5524772;26;19997;-69
2024/04/16 08:50:33;;;;;;;1999.90;999.90;;;19.40;99.90;;;;;;5521823;25;20475;-72
2024/04/16 08:52:59;;;;;;;1999.90;999.90;;;16.90;99.90;;;;;;5523692;26;20098;-69
2024/04/16 08:55:26;;;;;;;1999.90;999.90;;;16.70;99.90;;;;;;5491463;26;20449;-73
2024/04/16 08:57:53;;;;;;;1999.90;999.90;;;20.60;99.90;;;;;;5524439;26;20016;-73
2024/04/16 09:00:20;;;;;;;1999.90;999.90;;;23.50;99.90;;;;;;5524623;26;20048;-70
2024/04/16 09:02:46;;;;;;;1999.90;999.90;;;24.10;99.90;;;;;;5524375;26;20440;-73
2024/04/16 09:05:12;;;;;;;1999.90;999.90;;;24.10;99.90;;;;;;5489911;26;20410;-74
2024/04/16 09:07:39;;;;;;;1999.90;999.90;;;24.30;99.90;;;;;;5517545;25;20789;-67
2024/04/16 09:10:19;;;;;;;1999.90;999.90;;;24.00;99.90;;;;;;5523696;25;20005;-67
2024/04/16 09:12:47;;;;;;;1999.90;999.90;;;25.00;99.90;;;;;;5522586;26;20337;-69
2024/04/16 09:15:14;;;;;;;1999.90;999.90;;;22.60;99.90;;;;;;5490726;26;20066;-69
2024/04/16 09:17:52;;;;;;;1999.90;999.90;;;19.60;99.90;;;;;;5522938;26;20569;-73
2024/04/16 09:20:23;;;;;;;1999.90;999.90;;;18.90;99.90;;;;;;5527058;25;19998;-69
2024/04/16 09:22:51;;;;;;;1999.90;999.90;;;21.30;99.90;;;;;;5522374;26;19993;-69
2024/04/16 09:25:18;;;;;;;1999.90;999.90;;;22.30;99.90;;;;;;5524246;26;20012;-70
2024/04/16 09:27:51;;;;;;;1999.90;999.90;;;23.30;99.90;;;;;;5523249;26;20054;-69
2024/04/16 09:30:17;;;;;;;1999.90;999.90;;;21.40;99.90;;;;;;5520576;26;20001;-74
2024/04/16 09:33:05;;;;;;;1999.90;999.90;;;20.30;99.90;;;;;;5523934;26;20015;-74
2024/04/16 09:35:32;;;;;;;1999.90;999.90;;;17.90;99.90;;;;;;5523656;26;20433;-69
2024/04/16 09:38:05;;;;;;;1999.90;999.90;;;16.20;99.90;;;;;;5523849;26;20001;-69
2024/04/16 09:40:31;;;;;;;1999.90;999.90;;;15.00;99.90;;;;;;5491411;26;19998;-68
2024/04/16 09:42:58;;;;;;;1999.90;999.90;;;14.40;99.90;;;;;;5523983;26;20006;-72
2024/04/16 09:45:24;;;;;;;1999.90;999.90;;;14.00;99.90;;;;;;5523163;26;20037;-73
2024/04/16 09:47:51;;;;;;;1999.90;999.90;;;13.60;99.90;;;;;;5523254;26;20978;-69
2024/04/16 09:50:21;;;;;;;1999.90;999.90;;;13.60;99.90;;;;;;5489142;26;20101;-74
2024/04/16 09:52:51;;;;;;;1999.90;999.90;;;13.60;99.90;;;;;;5523388;26;20033;-69
2024/04/16 09:55:22;;;;;;;1999.90;999.90;;;13.60;99.90;;;;;;5521486;26;19997;-69
2024/04/16 09:57:48;;;;;;;1999.90;999.90;;;13.60;99.90;;;;;;5521803;26;20073;-73
2024/04/16 10:00:15;;;;;;;1999.90;999.90;;;13.50;99.90;;;;;;5523532;26;20009;-68
2024/04/16 10:02:42;;;;;;;1999.90;999.90;;;13.60;99.90;;;;;;5523586;26;20016;-68
2024/04/16 10:05:12;;;;;;;1999.90;999.90;;;14.00;99.90;;;;;;5520473;26;20348;-69
2024/04/16 10:07:40;;;;;;;1999.90;999.90;;;14.50;99.90;;;;;;5482786;26;20001;-73
2024/04/16 10:10:08;;;;;;;1999.90;999.90;;;15.00;99.90;;;;;;5523853;26;20078;-73
2024/04/16 10:12:34;;;;;;;1999.90;999.90;;;15.30;99.90;;;;;;5488771;26;20440;-74
2024/04/16 10:15:07;;;;;;;1999.90;999.90;;;15.60;99.90;;;;;;5522718;26;19993;-73
2024/04/16 10:17:34;;;;;;;1999.90;999.90;;;15.90;99.90;;;;;;5490632;26;20013;-69
2024/04/16 10:20:14;;;;;;;1999.90;999.90;;;16.80;99.90;;;;;;5523517;26;20077;-70
2024/04/16 10:22:40;;;;;;;1999.90;999.90;;;17.60;99.90;;;;;;5515125;26;20329;-74
2024/04/16 10:25:06;;;;;;;1999.90;999.90;;;18.30;99.90;;;;;;5523339;26;20016;-74
2024/04/16 10:27:31;;;;;;;1999.90;999.90;;;17.60;99.90;;;;;;5523005;26;20013;-69
2024/04/16 10:30:15;;;;;;;1999.90;999.90;;;17.10;99.90;;;;;;5523407;26;20441;-68
2024/04/16 10:32:46;;;;;;;1999.90;999.90;;;15.60;99.90;;;;;;5522556;25;20019;-69
2024/04/16 10:35:13;;;;;;;1999.90;999.90;;;15.00;99.90;;;;;;5522178;26;20011;-75
2024/04/16 10:37:38;;;;;;;1999.90;999.90;;;14.00;99.90;;;;;;5522202;26;19997;-72
2024/04/16 10:40:05;;;;;;;1999.90;999.90;;;13.70;99.90;;;;;;5522140;26;19997;-69
2024/04/16 10:42:36;;;;;;;1999.90;999.90;;;13.40;99.90;;;;;;5490312;26;19997;-68
2024/04/16 10:45:03;;;;;;;1999.90;999.90;;;13.30;99.90;;;;;;5522822;26;20002;-73
2024/04/16 10:47:31;;;;;;;1999.90;999.90;;;13.20;99.90;;;;;;5490580;26;20122;-75
2024/04/16 10:49:58;;;;;;;1999.90;999.90;;;13.10;99.90;;;;;;5523467;26;20005;-74
2024/04/16 10:52:23;;;;;;;1999.90;999.90;;;13.20;99.90;;;;;;5522750;26;20011;-73
2024/04/16 10:54:52;;;;;;;1999.90;999.90;;;13.40;99.90;;;;;;5522403;26;19997;-67
2024/04/16 10:57:19;;;;;;;1999.90;999.90;;;13.70;99.90;;;;;;5521481;26;20012;-67
2024/04/16 10:59:45;;;;;;;1999.90;999.90;;;13.90;99.90;;;;;;5522494;26;20436;-73
2024/04/16 11:02:11;;;;;;;1999.90;999.90;;;14.00;99.90;;;;;;5522503;26;20452;-73
2024/04/16 11:04:38;;;;;;;1999.90;999.90;;;14.30;99.90;;;;;;5520909;26;20006;-73
2024/04/16 11:07:04;;;;;;;1999.90;999.90;;;14.40;99.90;;;;;;5519673;25;20001;-72
2024/04/16 11:09:30;;;;;;;1999.90;999.90;;;15.00;99.90;;;;;;5521910;26;20362;-68
2024/04/16 11:11:56;;;;;;;1999.90;999.90;;;15.40;99.90;;;;;;5520721;26;20077;-68
2024/04/16 11:14:23;;;;;;;1999.90;999.90;;;15.80;99.90;;;;;;5523081;26;20069;-68
2024/04/16 11:16:49;;;;;;;1999.90;999.90;;;15.70;99.90;;;;;;5522517;26;20424;-68
2024/04/16 11:19:17;;;;;;;1999.90;999.90;;;15.60;99.90;;;;;;5521490;25;20016;-68
2024/04/16 11:21:43;;;;;;;1999.90;999.90;;;15.70;99.90;;;;;;5521387;25;19994;-68
2024/04/16 11:24:09;;;;;;;1999.90;999.90;;;16.10;99.90;;;;;;5520808;26;20001;-68
2024/04/16 11:26:37;;;;;;;1999.90;999.90;;;16.00;99.90;;;;;;5521928;26;20042;-73
2024/04/16 11:29:04;;;;;;;1999.90;999.90;;;16.50;99.90;;;;;;5521899;26;20051;-73
2024/04/16 11:31:30;;;;;;;1999.90;999.90;;;17.10;99.90;;;;;;5521040;25;20013;-68
2024/04/16 11:33:56;;;;;;;1999.90;999.90;;;17.50;99.90;;;;;;5521014;26;20281;-68
2024/04/16 11:36:22;;;;;;;1999.90;999.90;;;17.20;99.90;;;;;;5522573;26;20382;-68
2024/04/16 11:38:48;;;;;;;1999.90;999.90;;;16.90;99.90;;;;;;5520749;26;20001;-68
2024/04/16 11:41:17;;;;;;;1999.90;999.90;;;16.90;99.90;;;;;;5522166;26;20011;-72
2024/04/16 11:43:45;;;;;;;1999.90;999.90;;;16.80;99.90;;;;;;5521142;26;20431;-72
2024/04/16 11:46:12;;;;;;;1999.90;999.90;;;16.60;99.90;;;;;;5522104;26;20134;-71
2024/04/16 11:48:38;;;;;;;1999.90;999.90;;;16.30;99.90;;;;;;5520711;26;20033;-68
2024/04/16 11:51:06;;;;;;;1999.90;999.90;;;15.90;99.90;;;;;;5521402;26;19998;-68
2024/04/16 11:53:32;;;;;;;1999.90;999.90;;;16.10;99.90;;;;;;5522232;26;20009;-72
2024/04/16 11:55:57;;;;;;;1999.90;999.90;;;16.30;99.90;;;;;;5521968;26;19998;-68
2024/04/16 11:58:23;;;;;;;1999.90;999.90;;;16.80;99.90;;;;;;5521757;26;20465;-68
2024/04/16 12:00:51;;;;;;;1999.90;999.90;;;16.80;99.90;;;;;;5521947;26;20064;-68
2024/04/16 12:03:17;;;;;;;1999.90;999.90;;;16.50;99.90;;;;;;5521754;26;20433;-67